createdAt,value
2023-04-16T00:05:32.916Z,8.15
2023-04-16T00:15:34.475Z,7.55
2023-04-16T00:25:38.073Z,7.93
2023-04-16T00:35:40.396Z,6.47
2023-04-16T00:45:44.315Z,6.68
2023-04-16T00:55:45.972Z,8.13
2023-04-16T01:05:54.228Z,8.15
2023-04-16T01:15:55.844Z,6.43
2023-04-16T01:25:59.459Z,7.93
2023-04-16T01:36:01.050Z,7.43
2023-04-16T01:46:18.898Z,8.07
2023-04-16T01:56:22.017Z,5.90
2023-04-16T02:06:23.561Z,7.25
2023-04-16T02:16:26.380Z,6.38
2023-04-16T02:26:33.496Z,6.75
2023-04-16T02:36:40.786Z,7.07
2023-04-16T02:56:57.481Z,6.30
2023-04-16T03:06:59.137Z,7.05
2023-04-16T03:17:00.712Z,6.28
2023-04-16T03:27:02.474Z,6.10
2023-04-16T03:37:10.424Z,5.60
2023-04-16T03:47:12.207Z,5.30
2023-04-16T03:57:13.935Z,5.72
2023-04-16T04:07:16.223Z,5.13
2023-04-16T04:17:22.794Z,6.22
2023-04-16T04:27:26.076Z,5.10
2023-04-16T04:37:30.996Z,4.80
2023-04-16T04:47:38.136Z,5.13
2023-04-16T04:57:42.307Z,6.63
2023-04-16T05:07:46.981Z,5.68
2023-04-16T05:17:48.646Z,6.20
2023-04-16T05:27:52.421Z,5.32
2023-04-16T05:37:53.911Z,7.13
2023-04-16T05:48:00.138Z,5.70
2023-04-16T05:58:04.333Z,6.38
2023-04-16T06:08:08.164Z,6.93
2023-04-16T06:18:15.123Z,6.68
2023-04-16T06:28:16.716Z,7.05
2023-04-16T06:38:21.050Z,6.85
2023-04-16T06:48:24.231Z,7.18
2023-04-16T06:58:25.947Z,5.30
2023-04-16T07:08:29.620Z,5.90
2023-04-16T07:18:31.287Z,7.53
2023-04-16T07:28:32.856Z,6.30
2023-04-16T07:38:34.627Z,6.60
2023-04-16T07:48:36.150Z,6.07
2023-04-16T07:58:42.029Z,6.93
2023-04-16T08:08:43.600Z,5.47
2023-04-16T08:18:45.418Z,5.63
2023-04-16T08:28:49.276Z,6.53
2023-04-16T08:38:52.181Z,6.30
2023-04-16T08:48:57.789Z,4.53
2023-04-16T08:59:01.966Z,5.63
2023-04-16T09:09:06.487Z,5.10
2023-04-16T09:19:11.075Z,6.88
2023-04-16T09:29:33.461Z,5.10
2023-04-16T09:39:34.950Z,7.03
2023-04-16T09:49:42.255Z,6.45
2023-04-16T09:59:46.139Z,6.15
2023-04-16T10:09:50.567Z,8.33
2023-04-16T10:19:53.693Z,8.20
2023-04-16T10:29:55.279Z,8.07
2023-04-16T10:39:56.755Z,5.85
2023-04-16T10:49:58.307Z,8.00
2023-04-16T11:00:02.550Z,6.22
2023-04-16T11:10:11.302Z,5.67
2023-04-16T11:20:24.330Z,6.13
2023-04-16T11:30:35.133Z,6.47
2023-04-16T11:40:38.128Z,6.35
2023-04-16T11:50:40.096Z,5.75
2023-04-16T12:00:43.956Z,5.93
2023-04-16T12:10:55.552Z,5.25
2023-04-16T12:20:59.538Z,4.72
2023-04-16T12:31:02.716Z,4.68
2023-04-16T12:41:08.184Z,5.50
2023-04-16T12:51:10.421Z,5.35
2023-04-16T13:01:11.972Z,5.95
2023-04-16T13:11:15.962Z,5.00
2023-04-16T13:21:17.476Z,5.60
2023-04-16T13:31:22.092Z,5.75
2023-04-16T13:41:23.772Z,7.90
2023-04-16T13:51:27.800Z,5.13
2023-04-16T14:01:29.330Z,6.93
2023-04-16T14:11:31.317Z,6.15
2023-04-16T14:21:35.841Z,5.18
2023-04-16T14:31:37.405Z,5.05
2023-04-16T14:41:39.019Z,5.03
2023-04-16T14:51:41.208Z,4.75
2023-04-16T15:01:42.888Z,4.28
2023-04-16T15:11:46.618Z,4.93
2023-04-16T15:21:48.902Z,7.07
2023-04-16T15:31:52.694Z,7.20
2023-04-16T15:42:01.602Z,5.60
2023-04-16T15:52:04.168Z,4.15
2023-04-16T16:02:05.872Z,4.47
2023-04-16T16:12:09.592Z,10.68
2023-04-16T16:22:11.130Z,11.87
2023-04-16T16:32:16.505Z,8.90
2023-04-16T16:42:19.930Z,10.70
2023-04-16T16:52:23.858Z,7.83
2023-04-16T17:02:25.685Z,6.87
2023-04-16T17:12:27.342Z,8.23
2023-04-16T17:22:28.844Z,6.57
2023-04-16T17:32:32.500Z,5.05
2023-04-16T17:42:34.996Z,7.40
2023-04-16T17:52:37.706Z,5.70
2023-04-16T18:02:40.909Z,7.97
2023-04-16T18:12:42.666Z,7.30
2023-04-16T18:22:45.988Z,5.15
2023-04-16T18:33:10.599Z,5.20
2023-04-16T18:43:09.257Z,4.82
2023-04-16T18:53:10.822Z,5.32
2023-04-16T19:03:12.418Z,3.97
2023-04-16T19:13:16.675Z,4.30
2023-04-16T19:23:19.106Z,3.90
2023-04-16T19:33:24.460Z,3.85
2023-04-16T19:43:30.762Z,4.22
2023-04-16T19:53:34.070Z,4.10
2023-04-16T20:03:38.732Z,4.63
2023-04-16T20:13:40.333Z,7.65
2023-04-16T20:23:41.882Z,5.18
2023-04-16T20:33:46.170Z,4.20
2023-04-16T20:43:50.182Z,4.78
2023-04-16T20:53:52.108Z,4.77
2023-04-16T21:03:55.885Z,4.18
2023-04-16T21:13:57.548Z,5.53
2023-04-16T21:24:02.255Z,5.18
2023-04-16T21:34:03.819Z,5.28
2023-04-16T21:44:05.529Z,3.95
2023-04-16T21:54:07.171Z,4.20
2023-04-16T22:04:12.146Z,3.63
2023-04-16T22:14:14.578Z,4.10
2023-04-16T22:24:18.444Z,4.25
2023-04-16T22:34:20.169Z,3.85
2023-04-16T22:44:21.706Z,4.03
2023-04-16T22:54:27.955Z,5.32
2023-04-16T23:04:29.578Z,4.40
2023-04-16T23:14:31.512Z,4.30
2023-04-16T23:24:33.070Z,4.93
2023-04-16T23:34:34.668Z,4.50
2023-04-16T23:44:36.247Z,5.00
2023-04-16T23:54:37.758Z,4.38
